sensor_id;sensor_type;location;lat;lon;timestamp;temperature;humidity
44111;DHT22;29774;52.664;5.074;2023-01-15T00:02:06;7.70;78.50
44111;DHT22;29774;52.664;5.074;2023-01-15T00:04:32;7.90;79.60
44111;DHT22;29774;52.664;5.074;2023-01-15T00:06:57;7.90;78.40
44111;DHT22;29774;52.664;5.074;2023-01-15T00:09:23;8.10;79.00
44111;DHT22;29774;52.664;5.074;2023-01-15T00:11:49;7.90;77.60
44111;DHT22;29774;52.664;5.074;2023-01-15T00:14:14;7.80;78.30
44111;DHT22;29774;52.664;5.074;2023-01-15T00:16:40;7.90;78.50
44111;DHT22;29774;52.664;5.074;2023-01-15T00:19:06;8.50;80.20
44111;DHT22;29774;52.664;5.074;2023-01-15T00:21:34;8.20;77.50
44111;DHT22;29774;52.664;5.074;2023-01-15T00:24:00;8.00;76.40
44111;DHT22;29774;52.664;5.074;2023-01-15T00:26:44;7.90;77.00
44111;DHT22;29774;52.664;5.074;2023-01-15T00:29:28;7.80;77.00
44111;DHT22;29774;52.664;5.074;2023-01-15T00:31:59;8.20;79.60
44111;DHT22;29774;52.664;5.074;2023-01-15T00:34:26;8.10;77.70
44111;DHT22;29774;52.664;5.074;2023-01-15T00:36:51;8.30;78.30
44111;DHT22;29774;52.664;5.074;2023-01-15T00:39:17;8.30;78.40
44111;DHT22;29774;52.664;5.074;2023-01-15T00:41:43;8.30;77.70
44111;DHT22;29774;52.664;5.074;2023-01-15T00:44:08;8.10;76.90
44111;DHT22;29774;52.664;5.074;2023-01-15T00:46:34;7.90;77.30
44111;DHT22;29774;52.664;5.074;2023-01-15T00:49:00;7.80;78.10
44111;DHT22;29774;52.664;5.074;2023-01-15T00:51:26;7.90;77.70
44111;DHT22;29774;52.664;5.074;2023-01-15T00:53:51;7.90;78.20
44111;DHT22;29774;52.664;5.074;2023-01-15T00:56:17;7.80;77.70
44111;DHT22;29774;52.664;5.074;2023-01-15T00:58:42;7.80;77.50
44111;DHT22;29774;52.664;5.074;2023-01-15T01:01:08;7.90;77.60
44111;DHT22;29774;52.664;5.074;2023-01-15T01:03:34;7.80;76.80
44111;DHT22;29774;52.664;5.074;2023-01-15T01:06:01;8.00;77.70
44111;DHT22;29774;52.664;5.074;2023-01-15T01:08:28;7.90;76.70
44111;DHT22;29774;52.664;5.074;2023-01-15T01:11:21;7.70;77.20
44111;DHT22;29774;52.664;5.074;2023-01-15T01:13:52;7.80;78.80
44111;DHT22;29774;52.664;5.074;2023-01-15T01:16:32;7.70;77.80
44111;DHT22;29774;52.664;5.074;2023-01-15T01:19:02;7.60;78.00
44111;DHT22;29774;52.664;5.074;2023-01-15T01:21:29;7.50;78.40
44111;DHT22;29774;52.664;5.074;2023-01-15T01:23:57;7.40;78.40
44111;DHT22;29774;52.664;5.074;2023-01-15T01:26:23;7.60;78.30
44111;DHT22;29774;52.664;5.074;2023-01-15T01:28:50;7.80;79.40
44111;DHT22;29774;52.664;5.074;2023-01-15T01:31:16;7.90;78.50
44111;DHT22;29774;52.664;5.074;2023-01-15T01:33:42;7.90;77.60
44111;DHT22;29774;52.664;5.074;2023-01-15T01:36:08;7.80;77.50
44111;DHT22;29774;52.664;5.074;2023-01-15T01:38:33;7.80;77.90
44111;DHT22;29774;52.664;5.074;2023-01-15T01:40:59;7.90;77.60
44111;DHT22;29774;52.664;5.074;2023-01-15T01:43:27;8.30;79.40
44111;DHT22;29774;52.664;5.074;2023-01-15T01:45:53;8.40;78.40
44111;DHT22;29774;52.664;5.074;2023-01-15T01:48:25;8.40;76.60
44111;DHT22;29774;52.664;5.074;2023-01-15T01:50:53;8.60;78.00
44111;DHT22;29774;52.664;5.074;2023-01-15T01:53:23;8.50;76.50
44111;DHT22;29774;52.664;5.074;2023-01-15T01:55:52;8.40;75.80
44111;DHT22;29774;52.664;5.074;2023-01-15T01:58:19;8.20;75.60
44111;DHT22;29774;52.664;5.074;2023-01-15T02:00:47;8.10;75.20
44111;DHT22;29774;52.664;5.074;2023-01-15T02:03:15;7.90;75.60
44111;DHT22;29774;52.664;5.074;2023-01-15T02:05:51;8.10;76.60
44111;DHT22;29774;52.664;5.074;2023-01-15T02:08:18;7.80;75.60
44111;DHT22;29774;52.664;5.074;2023-01-15T02:10:49;7.70;75.80
44111;DHT22;29774;52.664;5.074;2023-01-15T02:13:24;7.70;76.10
44111;DHT22;29774;52.664;5.074;2023-01-15T02:15:59;7.60;76.10
44111;DHT22;29774;52.664;5.074;2023-01-15T02:21:35;7.70;76.60
44111;DHT22;29774;52.664;5.074;2023-01-15T02:27:18;7.40;76.40
44111;DHT22;29774;52.664;5.074;2023-01-15T02:30:15;7.50;77.00
44111;DHT22;29774;52.664;5.074;2023-01-15T02:32:50;7.50;77.00
44111;DHT22;29774;52.664;5.074;2023-01-15T02:35:39;7.70;77.90
44111;DHT22;29774;52.664;5.074;2023-01-15T02:38:08;7.70;76.50
44111;DHT22;29774;52.664;5.074;2023-01-15T02:40:36;7.70;77.20
44111;DHT22;29774;52.664;5.074;2023-01-15T02:43:03;7.80;77.30
44111;DHT22;29774;52.664;5.074;2023-01-15T02:45:32;7.80;76.20
44111;DHT22;29774;52.664;5.074;2023-01-15T02:48:07;7.60;76.10
44111;DHT22;29774;52.664;5.074;2023-01-15T02:51:29;7.60;76.60
44111;DHT22;29774;52.664;5.074;2023-01-15T02:53:35;7.70;76.80
44111;DHT22;29774;52.664;5.074;2023-01-15T02:56:07;7.50;76.10
44111;DHT22;29774;52.664;5.074;2023-01-15T02:58:36;7.80;76.80
44111;DHT22;29774;52.664;5.074;2023-01-15T03:01:09;7.70;76.20
44111;DHT22;29774;52.664;5.074;2023-01-15T03:04:03;7.90;77.40
44111;DHT22;29774;52.664;5.074;2023-01-15T03:06:36;8.00;77.60
44111;DHT22;29774;52.664;5.074;2023-01-15T03:09:02;7.90;76.30
44111;DHT22;29774;52.664;5.074;2023-01-15T03:11:31;7.90;76.20
44111;DHT22;29774;52.664;5.074;2023-01-15T03:16:49;8.10;75.20
44111;DHT22;29774;52.664;5.074;2023-01-15T03:19:38;8.20;77.30
44111;DHT22;29774;52.664;5.074;2023-01-15T03:22:08;8.30;76.30
44111;DHT22;29774;52.664;5.074;2023-01-15T03:24:39;8.20;76.30
44111;DHT22;29774;52.664;5.074;2023-01-15T03:27:06;8.00;74.90
44111;DHT22;29774;52.664;5.074;2023-01-15T03:29:36;7.80;75.40
44111;DHT22;29774;52.664;5.074;2023-01-15T03:32:03;7.90;75.70
44111;DHT22;29774;52.664;5.074;2023-01-15T03:37:10;8.10;76.90
44111;DHT22;29774;52.664;5.074;2023-01-15T03:39:36;8.20;75.50
44111;DHT22;29774;52.664;5.074;2023-01-15T03:47:53;8.10;75.80
44111;DHT22;29774;52.664;5.074;2023-01-15T03:50:28;8.30;76.40
44111;DHT22;29774;52.664;5.074;2023-01-15T03:53:22;8.30;75.40
44111;DHT22;29774;52.664;5.074;2023-01-15T03:56:23;8.20;76.30
44111;DHT22;29774;52.664;5.074;2023-01-15T03:58:55;7.90;75.10
44111;DHT22;29774;52.664;5.074;2023-01-15T04:01:29;8.20;77.40
44111;DHT22;29774;52.664;5.074;2023-01-15T04:03:57;7.90;75.50
44111;DHT22;29774;52.664;5.074;2023-01-15T04:06:25;7.60;74.70
44111;DHT22;29774;52.664;5.074;2023-01-15T04:08:53;7.60;75.60
44111;DHT22;29774;52.664;5.074;2023-01-15T04:11:24;7.60;76.10
44111;DHT22;29774;52.664;5.074;2023-01-15T04:13:50;7.80;77.30
44111;DHT22;29774;52.664;5.074;2023-01-15T04:16:23;7.70;75.30
44111;DHT22;29774;52.664;5.074;2023-01-15T04:18:50;7.70;76.00
44111;DHT22;29774;52.664;5.074;2023-01-15T04:21:16;7.90;76.70
44111;DHT22;29774;52.664;5.074;2023-01-15T04:23:42;7.80;76.10
44111;DHT22;29774;52.664;5.074;2023-01-15T04:26:07;7.90;76.00
44111;DHT22;29774;52.664;5.074;2023-01-15T04:28:33;8.20;77.40
44111;DHT22;29774;52.664;5.074;2023-01-15T04:30:58;8.20;76.10
44111;DHT22;29774;52.664;5.074;2023-01-15T04:33:25;8.20;74.60
44111;DHT22;29774;52.664;5.074;2023-01-15T04:35:50;8.10;74.30
44111;DHT22;29774;52.664;5.074;2023-01-15T04:38:16;7.90;73.10
44111;DHT22;29774;52.664;5.074;2023-01-15T04:40:43;7.70;72.10
44111;DHT22;29774;52.664;5.074;2023-01-15T04:43:27;7.60;72.70
44111;DHT22;29774;52.664;5.074;2023-01-15T04:46:11;7.70;73.70
44111;DHT22;29774;52.664;5.074;2023-01-15T04:48:38;7.90;73.80
44111;DHT22;29774;52.664;5.074;2023-01-15T04:51:05;7.80;74.20
44111;DHT22;29774;52.664;5.074;2023-01-15T04:53:32;7.80;74.90
44111;DHT22;29774;52.664;5.074;2023-01-15T04:56:04;7.90;74.00
44111;DHT22;29774;52.664;5.074;2023-01-15T04:58:30;7.70;72.80
44111;DHT22;29774;52.664;5.074;2023-01-15T05:00:56;7.90;76.10
44111;DHT22;29774;52.664;5.074;2023-01-15T05:03:22;7.90;74.70
44111;DHT22;29774;52.664;5.074;2023-01-15T05:05:48;7.80;74.90
44111;DHT22;29774;52.664;5.074;2023-01-15T05:08:15;7.90;74.60
44111;DHT22;29774;52.664;5.074;2023-01-15T05:10:40;7.70;73.70
44111;DHT22;29774;52.664;5.074;2023-01-15T05:13:06;7.60;73.90
44111;DHT22;29774;52.664;5.074;2023-01-15T05:15:32;7.80;75.00
44111;DHT22;29774;52.664;5.074;2023-01-15T05:17:57;7.50;72.80
44111;DHT22;29774;52.664;5.074;2023-01-15T05:20:23;7.70;74.80
44111;DHT22;29774;52.664;5.074;2023-01-15T05:22:48;7.70;74.00
44111;DHT22;29774;52.664;5.074;2023-01-15T05:25:14;7.60;74.60
44111;DHT22;29774;52.664;5.074;2023-01-15T05:27:39;7.50;72.90
44111;DHT22;29774;52.664;5.074;2023-01-15T05:30:07;7.40;72.90
44111;DHT22;29774;52.664;5.074;2023-01-15T05:32:33;7.30;73.10
44111;DHT22;29774;52.664;5.074;2023-01-15T05:34:59;7.40;74.00
44111;DHT22;29774;52.664;5.074;2023-01-15T05:37:24;7.40;72.50
44111;DHT22;29774;52.664;5.074;2023-01-15T05:39:50;7.20;73.30
44111;DHT22;29774;52.664;5.074;2023-01-15T05:42:15;7.30;73.70
44111;DHT22;29774;52.664;5.074;2023-01-15T05:44:41;7.30;73.40
44111;DHT22;29774;52.664;5.074;2023-01-15T05:47:08;7.20;73.00
44111;DHT22;29774;52.664;5.074;2023-01-15T05:49:34;7.20;73.90
44111;DHT22;29774;52.664;5.074;2023-01-15T05:52:00;7.20;72.60
44111;DHT22;29774;52.664;5.074;2023-01-15T05:54:28;7.30;75.10
44111;DHT22;29774;52.664;5.074;2023-01-15T05:56:54;7.30;74.80
44111;DHT22;29774;52.664;5.074;2023-01-15T05:59:22;7.20;72.80
44111;DHT22;29774;52.664;5.074;2023-01-15T06:01:48;7.50;75.10
44111;DHT22;29774;52.664;5.074;2023-01-15T06:04:14;7.50;73.40
44111;DHT22;29774;52.664;5.074;2023-01-15T06:06:41;7.70;75.10
44111;DHT22;29774;52.664;5.074;2023-01-15T06:09:07;7.40;71.50
44111;DHT22;29774;52.664;5.074;2023-01-15T06:11:32;7.30;72.50
44111;DHT22;29774;52.664;5.074;2023-01-15T06:13:59;7.00;71.10
44111;DHT22;29774;52.664;5.074;2023-01-15T06:16:25;7.20;74.30
44111;DHT22;29774;52.664;5.074;2023-01-15T06:18:51;7.00;71.70
44111;DHT22;29774;52.664;5.074;2023-01-15T06:21:16;7.20;73.20
44111;DHT22;29774;52.664;5.074;2023-01-15T06:23:43;7.20;72.10
44111;DHT22;29774;52.664;5.074;2023-01-15T06:26:14;6.90;72.20
44111;DHT22;29774;52.664;5.074;2023-01-15T06:28:40;7.10;73.50
44111;DHT22;29774;52.664;5.074;2023-01-15T06:31:08;7.00;72.70
44111;DHT22;29774;52.664;5.074;2023-01-15T06:33:34;6.90;72.20
44111;DHT22;29774;52.664;5.074;2023-01-15T06:36:04;7.00;73.30
44111;DHT22;29774;52.664;5.074;2023-01-15T06:38:30;7.00;72.40
44111;DHT22;29774;52.664;5.074;2023-01-15T06:40:58;7.40;74.40
44111;DHT22;29774;52.664;5.074;2023-01-15T06:43:24;7.50;73.90
44111;DHT22;29774;52.664;5.074;2023-01-15T06:46:25;7.40;73.30
44111;DHT22;29774;52.664;5.074;2023-01-15T06:49:09;7.40;73.10
44111;DHT22;29774;52.664;5.074;2023-01-15T06:51:34;7.40;73.20
44111;DHT22;29774;52.664;5.074;2023-01-15T06:54:00;7.70;73.70
44111;DHT22;29774;52.664;5.074;2023-01-15T06:56:25;7.70;73.20
44111;DHT22;29774;52.664;5.074;2023-01-15T06:58:51;7.80;74.90
44111;DHT22;29774;52.664;5.074;2023-01-15T07:01:17;8.20;75.80
44111;DHT22;29774;52.664;5.074;2023-01-15T07:03:42;7.90;72.00
44111;DHT22;29774;52.664;5.074;2023-01-15T07:06:10;7.40;70.50
44111;DHT22;29774;52.664;5.074;2023-01-15T07:08:36;7.80;75.90
44111;DHT22;29774;52.664;5.074;2023-01-15T07:11:07;8.10;75.70
44111;DHT22;29774;52.664;5.074;2023-01-15T07:13:33;8.10;73.90
44111;DHT22;29774;52.664;5.074;2023-01-15T07:16:00;8.10;74.20
44111;DHT22;29774;52.664;5.074;2023-01-15T07:18:28;8.20;73.90
44111;DHT22;29774;52.664;5.074;2023-01-15T07:20:55;8.30;74.90
44111;DHT22;29774;52.664;5.074;2023-01-15T07:23:21;8.20;73.10
44111;DHT22;29774;52.664;5.074;2023-01-15T07:25:47;8.00;72.40
44111;DHT22;29774;52.664;5.074;2023-01-15T07:28:13;7.80;70.60
44111;DHT22;29774;52.664;5.074;2023-01-15T07:30:38;8.10;74.80
44111;DHT22;29774;52.664;5.074;2023-01-15T07:33:04;8.10;74.20
44111;DHT22;29774;52.664;5.074;2023-01-15T07:35:30;8.20;76.20
44111;DHT22;29774;52.664;5.074;2023-01-15T07:37:55;8.60;75.40
44111;DHT22;29774;52.664;5.074;2023-01-15T07:40:21;8.10;71.90
44111;DHT22;29774;52.664;5.074;2023-01-15T07:42:46;7.70;73.10
44111;DHT22;29774;52.664;5.074;2023-01-15T07:45:30;7.50;73.20
44111;DHT22;29774;52.664;5.074;2023-01-15T07:48:14;7.70;74.90
44111;DHT22;29774;52.664;5.074;2023-01-15T07:50:59;7.90;76.30
44111;DHT22;29774;52.664;5.074;2023-01-15T07:53:24;8.00;76.30
44111;DHT22;29774;52.664;5.074;2023-01-15T07:55:50;8.70;79.10
44111;DHT22;29774;52.664;5.074;2023-01-15T07:58:15;8.50;75.10
44111;DHT22;29774;52.664;5.074;2023-01-15T08:00:41;7.90;73.90
44111;DHT22;29774;52.664;5.074;2023-01-15T08:03:07;7.70;76.70
44111;DHT22;29774;52.664;5.074;2023-01-15T08:05:33;7.60;76.30
44111;DHT22;29774;52.664;5.074;2023-01-15T08:07:59;7.90;77.70
44111;DHT22;29774;52.664;5.074;2023-01-15T08:10:24;8.10;78.30
44111;DHT22;29774;52.664;5.074;2023-01-15T08:12:50;8.00;77.40
44111;DHT22;29774;52.664;5.074;2023-01-15T08:15:38;7.80;76.10
44111;DHT22;29774;52.664;5.074;2023-01-15T08:18:06;8.40;79.70
44111;DHT22;29774;52.664;5.074;2023-01-15T08:20:33;8.20;75.70
44111;DHT22;29774;52.664;5.074;2023-01-15T08:23:00;8.30;77.10
44111;DHT22;29774;52.664;5.074;2023-01-15T08:25:26;8.60;78.70
44111;DHT22;29774;52.664;5.074;2023-01-15T08:27:52;8.40;74.60
44111;DHT22;29774;52.664;5.074;2023-01-15T08:30:21;8.50;77.60
44111;DHT22;29774;52.664;5.074;2023-01-15T08:32:47;8.20;75.10
44111;DHT22;29774;52.664;5.074;2023-01-15T08:35:13;8.30;75.90
44111;DHT22;29774;52.664;5.074;2023-01-15T08:37:39;8.40;76.90
44111;DHT22;29774;52.664;5.074;2023-01-15T08:40:06;8.30;76.00
44111;DHT22;29774;52.664;5.074;2023-01-15T08:42:32;8.60;77.10
44111;DHT22;29774;52.664;5.074;2023-01-15T08:44:57;8.70;77.70
44111;DHT22;29774;52.664;5.074;2023-01-15T08:47:23;8.40;74.80
44111;DHT22;29774;52.664;5.074;2023-01-15T08:49:49;8.40;75.20
44111;DHT22;29774;52.664;5.074;2023-01-15T08:52:14;8.70;78.00
44111;DHT22;29774;52.664;5.074;2023-01-15T08:54:40;8.60;75.30
44111;DHT22;29774;52.664;5.074;2023-01-15T08:57:06;8.70;76.90
44111;DHT22;29774;52.664;5.074;2023-01-15T08:59:33;8.90;77.70
44111;DHT22;29774;52.664;5.074;2023-01-15T09:01:59;9.20;76.50
44111;DHT22;29774;52.664;5.074;2023-01-15T09:04:25;9.30;76.80
44111;DHT22;29774;52.664;5.074;2023-01-15T09:06:51;9.30;76.60
44111;DHT22;29774;52.664;5.074;2023-01-15T09:09:16;9.40;77.90
44111;DHT22;29774;52.664;5.074;2023-01-15T09:11:44;9.50;77.20
44111;DHT22;29774;52.664;5.074;2023-01-15T09:14:11;9.50;76.10
44111;DHT22;29774;52.664;5.074;2023-01-15T09:16:38;9.40;76.00
44111;DHT22;29774;52.664;5.074;2023-01-15T09:19:05;9.40;76.70
44111;DHT22;29774;52.664;5.074;2023-01-15T09:21:31;9.20;74.30
44111;DHT22;29774;52.664;5.074;2023-01-15T09:23:57;9.50;76.90
44111;DHT22;29774;52.664;5.074;2023-01-15T09:26:33;9.30;75.30
44111;DHT22;29774;52.664;5.074;2023-01-15T09:29:00;9.50;78.00
44111;DHT22;29774;52.664;5.074;2023-01-15T09:31:26;9.30;75.60
44111;DHT22;29774;52.664;5.074;2023-01-15T09:33:52;9.20;76.70
44111;DHT22;29774;52.664;5.074;2023-01-15T09:36:23;9.10;76.10
44111;DHT22;29774;52.664;5.074;2023-01-15T09:38:50;9.10;77.40
44111;DHT22;29774;52.664;5.074;2023-01-15T09:41:16;9.20;77.40
44111;DHT22;29774;52.664;5.074;2023-01-15T09:55:29;9.20;77.10
44111;DHT22;29774;52.664;5.074;2023-01-15T09:57:58;9.20;76.20
44111;DHT22;29774;52.664;5.074;2023-01-15T10:00:37;8.80;75.80
44111;DHT22;29774;52.664;5.074;2023-01-15T10:03:09;9.00;77.70
44111;DHT22;29774;52.664;5.074;2023-01-15T10:06:13;9.40;80.20
44111;DHT22;29774;52.664;5.074;2023-01-15T10:08:45;9.50;77.80
44111;DHT22;29774;52.664;5.074;2023-01-15T10:13:52;9.80;77.50
44111;DHT22;29774;52.664;5.074;2023-01-15T10:16:28;9.90;77.20
44111;DHT22;29774;52.664;5.074;2023-01-15T10:18:56;9.90;76.70
44111;DHT22;29774;52.664;5.074;2023-01-15T10:21:47;10.00;78.00
44111;DHT22;29774;52.664;5.074;2023-01-15T10:24:31;10.10;78.40
44111;DHT22;29774;52.664;5.074;2023-01-15T10:27:14;10.00;78.90
44111;DHT22;29774;52.664;5.074;2023-01-15T10:29:50;10.10;77.80
44111;DHT22;29774;52.664;5.074;2023-01-15T10:38:01;10.20;77.90
44111;DHT22;29774;52.664;5.074;2023-01-15T10:40:41;10.30;76.70
44111;DHT22;29774;52.664;5.074;2023-01-15T10:43:20;10.30;76.50
44111;DHT22;29774;52.664;5.074;2023-01-15T10:45:55;10.40;77.10
44111;DHT22;29774;52.664;5.074;2023-01-15T10:48:37;10.30;75.40
44111;DHT22;29774;52.664;5.074;2023-01-15T10:51:23;10.40;77.90
44111;DHT22;29774;52.664;5.074;2023-01-15T10:56:46;10.40;75.90
44111;DHT22;29774;52.664;5.074;2023-01-15T10:59:34;10.40;75.00
44111;DHT22;29774;52.664;5.074;2023-01-15T11:02:01;10.20;76.00
44111;DHT22;29774;52.664;5.074;2023-01-15T11:04:30;10.30;75.40
44111;DHT22;29774;52.664;5.074;2023-01-15T11:06:57;10.20;75.30
44111;DHT22;29774;52.664;5.074;2023-01-15T11:09:25;10.30;76.50
44111;DHT22;29774;52.664;5.074;2023-01-15T11:12:18;10.40;76.70
44111;DHT22;29774;52.664;5.074;2023-01-15T11:14:45;10.20;75.60
44111;DHT22;29774;52.664;5.074;2023-01-15T11:20:44;10.20;75.70
44111;DHT22;29774;52.664;5.074;2023-01-15T11:23:15;10.20;76.80
44111;DHT22;29774;52.664;5.074;2023-01-15T11:25:56;10.10;74.40
44111;DHT22;29774;52.664;5.074;2023-01-15T11:28:38;10.20;76.50
44111;DHT22;29774;52.664;5.074;2023-01-15T11:31:06;10.40;78.20
44111;DHT22;29774;52.664;5.074;2023-01-15T11:33:32;10.30;76.00
44111;DHT22;29774;52.664;5.074;2023-01-15T11:36:04;10.10;76.80
44111;DHT22;29774;52.664;5.074;2023-01-15T11:38:43;10.00;77.10
44111;DHT22;29774;52.664;5.074;2023-01-15T11:41:29;10.10;77.10
44111;DHT22;29774;52.664;5.074;2023-01-15T11:44:15;10.20;77.70
44111;DHT22;29774;52.664;5.074;2023-01-15T11:47:00;10.20;77.60
44111;DHT22;29774;52.664;5.074;2023-01-15T11:49:53;10.20;77.20
44111;DHT22;29774;52.664;5.074;2023-01-15T11:52:41;10.10;76.40
44111;DHT22;29774;52.664;5.074;2023-01-15T11:55:19;10.30;77.30
44111;DHT22;29774;52.664;5.074;2023-01-15T11:57:46;10.40;77.00
44111;DHT22;29774;52.664;5.074;2023-01-15T12:00:25;10.40;76.00
44111;DHT22;29774;52.664;5.074;2023-01-15T12:02:54;10.40;76.50
44111;DHT22;29774;52.664;5.074;2023-01-15T12:05:29;10.70;77.60
44111;DHT22;29774;52.664;5.074;2023-01-15T12:08:02;10.60;76.50
44111;DHT22;29774;52.664;5.074;2023-01-15T12:16:47;10.70;76.80
44111;DHT22;29774;52.664;5.074;2023-01-15T12:22:28;10.50;75.60
44111;DHT22;29774;52.664;5.074;2023-01-15T12:25:25;10.50;76.50
44111;DHT22;29774;52.664;5.074;2023-01-15T12:28:22;10.50;75.50
44111;DHT22;29774;52.664;5.074;2023-01-15T12:33:45;10.60;76.90
44111;DHT22;29774;52.664;5.074;2023-01-15T12:36:19;10.50;74.80
44111;DHT22;29774;52.664;5.074;2023-01-15T12:39:00;10.40;76.70
44111;DHT22;29774;52.664;5.074;2023-01-15T12:41:35;10.40;77.80
44111;DHT22;29774;52.664;5.074;2023-01-15T12:47:15;10.30;75.80
44111;DHT22;29774;52.664;5.074;2023-01-15T12:49:45;10.20;76.70
44111;DHT22;29774;52.664;5.074;2023-01-15T12:52:19;10.00;77.10
44111;DHT22;29774;52.664;5.074;2023-01-15T12:57:43;10.20;78.80
44111;DHT22;29774;52.664;5.074;2023-01-15T13:00:17;10.30;77.20
44111;DHT22;29774;52.664;5.074;2023-01-15T13:08:26;10.40;79.30
44111;DHT22;29774;52.664;5.074;2023-01-15T13:10:53;10.40;80.10
44111;DHT22;29774;52.664;5.074;2023-01-15T13:13:21;10.40;80.10
44111;DHT22;29774;52.664;5.074;2023-01-15T13:18:42;9.80;78.90
44111;DHT22;29774;52.664;5.074;2023-01-15T13:21:14;9.70;80.90
44111;DHT22;29774;52.664;5.074;2023-01-15T13:32:25;9.70;80.30
44111;DHT22;29774;52.664;5.074;2023-01-15T13:37:51;9.60;79.80
44111;DHT22;29774;52.664;5.074;2023-01-15T13:42:54;9.50;81.10
44111;DHT22;29774;52.664;5.074;2023-01-15T13:45:31;9.40;80.50
44111;DHT22;29774;52.664;5.074;2023-01-15T13:48:06;9.30;81.40
44111;DHT22;29774;52.664;5.074;2023-01-15T13:50:36;9.30;81.60
44111;DHT22;29774;52.664;5.074;2023-01-15T13:53:29;9.30;81.70
44111;DHT22;29774;52.664;5.074;2023-01-15T13:55:59;9.30;81.40
44111;DHT22;29774;52.664;5.074;2023-01-15T13:58:32;9.30;80.80
44111;DHT22;29774;52.664;5.074;2023-01-15T14:01:31;9.20;81.30
44111;DHT22;29774;52.664;5.074;2023-01-15T14:06:46;9.00;80.80
44111;DHT22;29774;52.664;5.074;2023-01-15T14:15:13;9.00;81.90
44111;DHT22;29774;52.664;5.074;2023-01-15T14:18:06;9.00;82.20
44111;DHT22;29774;52.664;5.074;2023-01-15T14:20:55;9.10;82.50
44111;DHT22;29774;52.664;5.074;2023-01-15T14:26:16;8.80;81.20
44111;DHT22;29774;52.664;5.074;2023-01-15T14:34:23;8.80;82.00
44111;DHT22;29774;52.664;5.074;2023-01-15T14:36:56;9.10;83.10
44111;DHT22;29774;52.664;5.074;2023-01-15T14:42:03;9.40;82.90
44111;DHT22;29774;52.664;5.074;2023-01-15T14:45:02;9.70;81.80
44111;DHT22;29774;52.664;5.074;2023-01-15T14:47:42;9.40;80.30
44111;DHT22;29774;52.664;5.074;2023-01-15T14:55:54;8.60;81.60
44111;DHT22;29774;52.664;5.074;2023-01-15T14:58:43;8.70;82.10
44111;DHT22;29774;52.664;5.074;2023-01-15T15:04:21;8.60;82.30
44111;DHT22;29774;52.664;5.074;2023-01-15T15:07:00;8.70;82.60
44111;DHT22;29774;52.664;5.074;2023-01-15T15:12:21;8.60;82.50
44111;DHT22;29774;52.664;5.074;2023-01-15T15:17:36;8.70;83.30
44111;DHT22;29774;52.664;5.074;2023-01-15T15:20:30;8.30;82.40
44111;DHT22;29774;52.664;5.074;2023-01-15T15:25:58;8.00;82.90
44111;DHT22;29774;52.664;5.074;2023-01-15T15:28:25;8.30;83.50
44111;DHT22;29774;52.664;5.074;2023-01-15T15:30:52;9.00;84.70
44111;DHT22;29774;52.664;5.074;2023-01-15T15:33:25;9.10;82.60
44111;DHT22;29774;52.664;5.074;2023-01-15T15:35:53;8.90;81.60
44111;DHT22;29774;52.664;5.074;2023-01-15T15:38:22;8.80;81.30
44111;DHT22;29774;52.664;5.074;2023-01-15T15:40:54;8.90;81.90
44111;DHT22;29774;52.664;5.074;2023-01-15T15:43:42;8.70;81.20
44111;DHT22;29774;52.664;5.074;2023-01-15T15:46:30;8.60;81.20
44111;DHT22;29774;52.664;5.074;2023-01-15T15:49:14;8.50;81.80
44111;DHT22;29774;52.664;5.074;2023-01-15T15:54:13;8.20;82.20
44111;DHT22;29774;52.664;5.074;2023-01-15T15:57:04;8.60;83.30
44111;DHT22;29774;52.664;5.074;2023-01-15T15:59:38;8.40;82.30
44111;DHT22;29774;52.664;5.074;2023-01-15T16:02:17;8.30;82.00
44111;DHT22;29774;52.664;5.074;2023-01-15T16:04:45;8.40;82.80
44111;DHT22;29774;52.664;5.074;2023-01-15T16:07:19;8.20;82.40
44111;DHT22;29774;52.664;5.074;2023-01-15T16:09:50;8.10;82.50
44111;DHT22;29774;52.664;5.074;2023-01-15T16:12:19;7.70;82.50
44111;DHT22;29774;52.664;5.074;2023-01-15T16:14:46;7.50;83.30
44111;DHT22;29774;52.664;5.074;2023-01-15T16:17:13;7.60;84.20
44111;DHT22;29774;52.664;5.074;2023-01-15T16:19:39;7.60;84.10
44111;DHT22;29774;52.664;5.074;2023-01-15T16:22:06;7.70;84.10
44111;DHT22;29774;52.664;5.074;2023-01-15T16:24:33;7.60;83.90
44111;DHT22;29774;52.664;5.074;2023-01-15T16:27:02;7.40;83.90
44111;DHT22;29774;52.664;5.074;2023-01-15T16:29:31;7.40;84.10
44111;DHT22;29774;52.664;5.074;2023-01-15T16:31:57;7.40;84.20
44111;DHT22;29774;52.664;5.074;2023-01-15T16:34:29;7.60;84.50
44111;DHT22;29774;52.664;5.074;2023-01-15T16:36:55;7.50;84.10
44111;DHT22;29774;52.664;5.074;2023-01-15T16:39:43;7.40;84.00
44111;DHT22;29774;52.664;5.074;2023-01-15T16:44:59;7.70;84.20
44111;DHT22;29774;52.664;5.074;2023-01-15T16:47:33;7.60;83.80
44111;DHT22;29774;52.664;5.074;2023-01-15T16:52:51;7.20;84.20
44111;DHT22;29774;52.664;5.074;2023-01-15T16:55:37;7.10;84.50
44111;DHT22;29774;52.664;5.074;2023-01-15T17:01:00;7.00;85.20
44111;DHT22;29774;52.664;5.074;2023-01-15T17:03:29;6.90;85.30
44111;DHT22;29774;52.664;5.074;2023-01-15T17:06:01;6.90;85.20
44111;DHT22;29774;52.664;5.074;2023-01-15T17:08:37;6.80;85.40
44111;DHT22;29774;52.664;5.074;2023-01-15T17:11:05;6.70;85.80
44111;DHT22;29774;52.664;5.074;2023-01-15T17:13:39;6.60;86.10
44111;DHT22;29774;52.664;5.074;2023-01-15T17:18:31;6.70;86.60
44111;DHT22;29774;52.664;5.074;2023-01-15T17:20:57;6.70;86.40
44111;DHT22;29774;52.664;5.074;2023-01-15T17:23:26;6.70;86.70
44111;DHT22;29774;52.664;5.074;2023-01-15T17:25:53;6.70;86.90
44111;DHT22;29774;52.664;5.074;2023-01-15T17:28:19;7.00;86.80
44111;DHT22;29774;52.664;5.074;2023-01-15T17:30:49;7.00;86.80
44111;DHT22;29774;52.664;5.074;2023-01-15T17:33:17;7.00;86.80
44111;DHT22;29774;52.664;5.074;2023-01-15T17:35:43;7.10;86.60
44111;DHT22;29774;52.664;5.074;2023-01-15T17:38:13;7.20;86.40
44111;DHT22;29774;52.664;5.074;2023-01-15T17:40:39;7.00;86.00
44111;DHT22;29774;52.664;5.074;2023-01-15T17:43:04;6.90;86.20
44111;DHT22;29774;52.664;5.074;2023-01-15T17:45:32;6.90;86.10
44111;DHT22;29774;52.664;5.074;2023-01-15T17:47:58;6.80;86.30
44111;DHT22;29774;52.664;5.074;2023-01-15T17:50:26;6.80;86.60
44111;DHT22;29774;52.664;5.074;2023-01-15T17:52:52;6.70;86.80
44111;DHT22;29774;52.664;5.074;2023-01-15T17:55:20;6.70;87.10
44111;DHT22;29774;52.664;5.074;2023-01-15T17:58:05;6.50;87.30
44111;DHT22;29774;52.664;5.074;2023-01-15T18:00:50;6.50;87.60
44111;DHT22;29774;52.664;5.074;2023-01-15T18:03:35;6.40;87.50
44111;DHT22;29774;52.664;5.074;2023-01-15T18:06:33;6.30;87.60
44111;DHT22;29774;52.664;5.074;2023-01-15T18:09:01;6.30;87.60
44111;DHT22;29774;52.664;5.074;2023-01-15T18:11:27;6.30;87.70
44111;DHT22;29774;52.664;5.074;2023-01-15T18:13:53;6.30;87.60
44111;DHT22;29774;52.664;5.074;2023-01-15T18:16:20;6.40;87.70
44111;DHT22;29774;52.664;5.074;2023-01-15T18:18:46;6.50;87.40
44111;DHT22;29774;52.664;5.074;2023-01-15T18:21:12;6.60;87.00
44111;DHT22;29774;52.664;5.074;2023-01-15T18:23:38;6.70;86.60
44111;DHT22;29774;52.664;5.074;2023-01-15T18:26:05;6.70;86.20